sensor_id;sensor_type;location;lat;lon;timestamp;temperature;humidity
76789;DHT22;65740;52.464;13.446;2023-04-28T00:01:09;19.80;42.20
76789;DHT22;65740;52.464;13.446;2023-04-28T00:03:35;19.80;42.10
76789;DHT22;65740;52.464;13.446;2023-04-28T00:06:01;19.80;42.10
76789;DHT22;65740;52.464;13.446;2023-04-28T00:08:27;19.70;41.90
76789;DHT22;65740;52.464;13.446;2023-04-28T00:10:53;19.70;42.60
76789;DHT22;65740;52.464;13.446;2023-04-28T00:13:19;19.70;41.90
76789;DHT22;65740;52.464;13.446;2023-04-28T00:15:44;19.70;41.90
76789;DHT22;65740;52.464;13.446;2023-04-28T00:18:10;19.70;41.90
76789;DHT22;65740;52.464;13.446;2023-04-28T00:20:36;19.70;41.90
76789;DHT22;65740;52.464;13.446;2023-04-28T00:23:01;19.70;41.90
76789;DHT22;65740;52.464;13.446;2023-04-28T00:25:27;19.70;41.90
76789;DHT22;65740;52.464;13.446;2023-04-28T00:27:52;19.60;41.70
76789;DHT22;65740;52.464;13.446;2023-04-28T00:30:18;19.60;41.60
76789;DHT22;65740;52.464;13.446;2023-04-28T00:32:44;19.70;41.70
76789;DHT22;65740;52.464;13.446;2023-04-28T00:35:09;19.70;41.60
76789;DHT22;65740;52.464;13.446;2023-04-28T00:37:36;19.70;41.50
76789;DHT22;65740;52.464;13.446;2023-04-28T00:40:02;19.70;41.40
76789;DHT22;65740;52.464;13.446;2023-04-28T00:42:28;19.70;41.30
76789;DHT22;65740;52.464;13.446;2023-04-28T00:44:53;19.70;41.30
76789;DHT22;65740;52.464;13.446;2023-04-28T00:47:19;19.70;41.30
76789;DHT22;65740;52.464;13.446;2023-04-28T00:49:45;19.70;41.20
76789;DHT22;65740;52.464;13.446;2023-04-28T00:52:14;19.70;41.20
76789;DHT22;65740;52.464;13.446;2023-04-28T00:54:40;19.70;41.20
76789;DHT22;65740;52.464;13.446;2023-04-28T00:57:08;19.70;41.20
76789;DHT22;65740;52.464;13.446;2023-04-28T00:59:34;19.70;41.20
76789;DHT22;65740;52.464;13.446;2023-04-28T01:01:59;19.70;41.10
76789;DHT22;65740;52.464;13.446;2023-04-28T01:04:26;19.70;41.10
76789;DHT22;65740;52.464;13.446;2023-04-28T01:06:54;19.70;41.70
76789;DHT22;65740;52.464;13.446;2023-04-28T01:09:20;19.60;41.00
76789;DHT22;65740;52.464;13.446;2023-04-28T01:11:46;19.60;41.00
76789;DHT22;65740;52.464;13.446;2023-04-28T01:14:12;19.60;41.10
76789;DHT22;65740;52.464;13.446;2023-04-28T01:16:38;19.60;41.10
76789;DHT22;65740;52.464;13.446;2023-04-28T01:19:06;19.50;41.00
76789;DHT22;65740;52.464;13.446;2023-04-28T01:21:33;19.50;40.90
76789;DHT22;65740;52.464;13.446;2023-04-28T01:23:59;19.50;40.90
76789;DHT22;65740;52.464;13.446;2023-04-28T01:26:25;19.40;40.80
76789;DHT22;65740;52.464;13.446;2023-04-28T01:28:51;19.50;41.00
76789;DHT22;65740;52.464;13.446;2023-04-28T01:31:17;19.40;40.80
76789;DHT22;65740;52.464;13.446;2023-04-28T01:33:42;19.40;40.70
76789;DHT22;65740;52.464;13.446;2023-04-28T01:36:08;19.40;40.70
76789;DHT22;65740;52.464;13.446;2023-04-28T01:38:34;19.40;40.70
76789;DHT22;65740;52.464;13.446;2023-04-28T01:40:59;19.40;40.70
76789;DHT22;65740;52.464;13.446;2023-04-28T01:43:28;19.40;40.70
76789;DHT22;65740;52.464;13.446;2023-04-28T01:45:53;19.40;40.70
76789;DHT22;65740;52.464;13.446;2023-04-28T01:48:19;19.40;40.70
76789;DHT22;65740;52.464;13.446;2023-04-28T01:50:45;19.40;40.70
76789;DHT22;65740;52.464;13.446;2023-04-28T01:53:10;19.30;41.30
76789;DHT22;65740;52.464;13.446;2023-04-28T01:55:37;19.30;40.60
76789;DHT22;65740;52.464;13.446;2023-04-28T01:58:02;19.30;40.60
76789;DHT22;65740;52.464;13.446;2023-04-28T02:00:28;19.30;40.60
76789;DHT22;65740;52.464;13.446;2023-04-28T02:02:54;19.30;40.60
76789;DHT22;65740;52.464;13.446;2023-04-28T02:05:19;19.30;40.60
76789;DHT22;65740;52.464;13.446;2023-04-28T02:07:45;19.30;40.60
76789;DHT22;65740;52.464;13.446;2023-04-28T02:10:11;19.30;40.50
76789;DHT22;65740;52.464;13.446;2023-04-28T02:12:37;19.30;40.40
76789;DHT22;65740;52.464;13.446;2023-04-28T02:15:02;19.30;40.30
76789;DHT22;65740;52.464;13.446;2023-04-28T02:17:31;19.30;40.30
76789;DHT22;65740;52.464;13.446;2023-04-28T02:19:56;19.30;40.20
76789;DHT22;65740;52.464;13.446;2023-04-28T02:22:23;19.30;40.20
76789;DHT22;65740;52.464;13.446;2023-04-28T02:24:49;19.30;40.20
76789;DHT22;65740;52.464;13.446;2023-04-28T02:27:15;19.30;40.10
76789;DHT22;65740;52.464;13.446;2023-04-28T02:29:40;19.30;40.10
76789;DHT22;65740;52.464;13.446;2023-04-28T02:32:06;19.30;40.00
76789;DHT22;65740;52.464;13.446;2023-04-28T02:34:32;19.30;40.10
76789;DHT22;65740;52.464;13.446;2023-04-28T02:36:58;19.30;40.10
76789;DHT22;65740;52.464;13.446;2023-04-28T02:39:23;19.30;40.10
76789;DHT22;65740;52.464;13.446;2023-04-28T02:41:51;19.30;40.10
76789;DHT22;65740;52.464;13.446;2023-04-28T02:44:17;19.30;40.10
76789;DHT22;65740;52.464;13.446;2023-04-28T02:46:43;19.30;40.10
76789;DHT22;65740;52.464;13.446;2023-04-28T02:49:08;19.20;39.90
76789;DHT22;65740;52.464;13.446;2023-04-28T02:51:34;19.20;40.00
76789;DHT22;65740;52.464;13.446;2023-04-28T02:53:59;19.20;40.00
76789;DHT22;65740;52.464;13.446;2023-04-28T02:56:25;19.20;39.90
76789;DHT22;65740;52.464;13.446;2023-04-28T02:58:51;19.20;39.90
76789;DHT22;65740;52.464;13.446;2023-04-28T03:01:17;19.20;39.90
76789;DHT22;65740;52.464;13.446;2023-04-28T03:03:42;19.20;39.90
76789;DHT22;65740;52.464;13.446;2023-04-28T03:06:08;19.20;39.90
76789;DHT22;65740;52.464;13.446;2023-04-28T03:08:34;19.10;39.90
76789;DHT22;65740;52.464;13.446;2023-04-28T03:10:59;19.10;39.90
76789;DHT22;65740;52.464;13.446;2023-04-28T03:13:25;19.10;39.80
76789;DHT22;65740;52.464;13.446;2023-04-28T03:15:51;19.10;39.90
76789;DHT22;65740;52.464;13.446;2023-04-28T03:18:17;19.10;39.80
76789;DHT22;65740;52.464;13.446;2023-04-28T03:20:43;19.10;39.80
76789;DHT22;65740;52.464;13.446;2023-04-28T03:23:08;19.10;39.80
76789;DHT22;65740;52.464;13.446;2023-04-28T03:25:34;19.00;39.70
76789;DHT22;65740;52.464;13.446;2023-04-28T03:28:00;19.10;39.80
76789;DHT22;65740;52.464;13.446;2023-04-28T03:30:27;19.00;39.70
76789;DHT22;65740;52.464;13.446;2023-04-28T03:32:52;19.00;39.70
76789;DHT22;65740;52.464;13.446;2023-04-28T03:35:18;19.00;39.70
76789;DHT22;65740;52.464;13.446;2023-04-28T03:37:43;19.00;39.70
76789;DHT22;65740;52.464;13.446;2023-04-28T03:40:09;19.00;39.70
76789;DHT22;65740;52.464;13.446;2023-04-28T03:42:35;19.00;39.70
76789;DHT22;65740;52.464;13.446;2023-04-28T03:45:01;19.00;39.80
76789;DHT22;65740;52.464;13.446;2023-04-28T03:47:26;19.00;39.60
76789;DHT22;65740;52.464;13.446;2023-04-28T03:49:52;18.90;39.60
76789;DHT22;65740;52.464;13.446;2023-04-28T03:52:18;19.00;39.60
76789;DHT22;65740;52.464;13.446;2023-04-28T03:54:44;19.00;39.50
76789;DHT22;65740;52.464;13.446;2023-04-28T03:57:10;19.00;39.50
76789;DHT22;65740;52.464;13.446;2023-04-28T03:59:37;19.00;39.50
76789;DHT22;65740;52.464;13.446;2023-04-28T04:02:02;19.00;39.40
76789;DHT22;65740;52.464;13.446;2023-04-28T04:04:28;19.00;39.40
76789;DHT22;65740;52.464;13.446;2023-04-28T04:06:54;19.00;39.40
76789;DHT22;65740;52.464;13.446;2023-04-28T04:09:20;19.00;39.30
76789;DHT22;65740;52.464;13.446;2023-04-28T04:11:45;19.00;40.20
76789;DHT22;65740;52.464;13.446;2023-04-28T04:14:11;19.00;39.40
76789;DHT22;65740;52.464;13.446;2023-04-28T04:16:37;19.00;39.30
76789;DHT22;65740;52.464;13.446;2023-04-28T04:19:02;19.00;40.00
76789;DHT22;65740;52.464;13.446;2023-04-28T04:21:28;19.00;39.40
76789;DHT22;65740;52.464;13.446;2023-04-28T04:23:54;19.00;39.40
76789;DHT22;65740;52.464;13.446;2023-04-28T04:26:20;19.00;39.40
76789;DHT22;65740;52.464;13.446;2023-04-28T04:28:45;19.00;39.30
76789;DHT22;65740;52.464;13.446;2023-04-28T04:31:11;19.00;39.30
76789;DHT22;65740;52.464;13.446;2023-04-28T04:33:36;19.00;40.10
76789;DHT22;65740;52.464;13.446;2023-04-28T04:36:03;19.00;39.60
76789;DHT22;65740;52.464;13.446;2023-04-28T04:38:29;19.00;39.50
76789;DHT22;65740;52.464;13.446;2023-04-28T04:40:55;18.90;39.40
76789;DHT22;65740;52.464;13.446;2023-04-28T04:43:21;18.90;39.30
76789;DHT22;65740;52.464;13.446;2023-04-28T04:45:47;18.90;39.30
76789;DHT22;65740;52.464;13.446;2023-04-28T04:48:13;18.90;39.20
76789;DHT22;65740;52.464;13.446;2023-04-28T04:50:39;18.90;39.60
76789;DHT22;65740;52.464;13.446;2023-04-28T04:53:05;18.90;39.30
76789;DHT22;65740;52.464;13.446;2023-04-28T04:55:31;18.90;39.50
76789;DHT22;65740;52.464;13.446;2023-04-28T04:57:56;18.90;39.40
76789;DHT22;65740;52.464;13.446;2023-04-28T05:00:22;18.90;39.20
76789;DHT22;65740;52.464;13.446;2023-04-28T05:02:47;18.80;39.40
76789;DHT22;65740;52.464;13.446;2023-04-28T05:05:13;18.90;39.20
76789;DHT22;65740;52.464;13.446;2023-04-28T05:07:38;18.90;39.20
76789;DHT22;65740;52.464;13.446;2023-04-28T05:10:05;18.80;39.30
76789;DHT22;65740;52.464;13.446;2023-04-28T05:12:31;18.80;39.80
76789;DHT22;65740;52.464;13.446;2023-04-28T05:14:57;18.90;39.30
76789;DHT22;65740;52.464;13.446;2023-04-28T05:17:22;18.90;39.10
76789;DHT22;65740;52.464;13.446;2023-04-28T05:19:49;18.90;39.30
76789;DHT22;65740;52.464;13.446;2023-04-28T05:22:15;18.90;39.30
76789;DHT22;65740;52.464;13.446;2023-04-28T05:24:40;18.90;39.10
76789;DHT22;65740;52.464;13.446;2023-04-28T05:27:06;18.90;38.90
76789;DHT22;65740;52.464;13.446;2023-04-28T05:29:31;18.90;39.10
76789;DHT22;65740;52.464;13.446;2023-04-28T05:31:57;18.90;38.90
76789;DHT22;65740;52.464;13.446;2023-04-28T05:34:23;18.90;39.10
76789;DHT22;65740;52.464;13.446;2023-04-28T05:36:48;18.90;39.00
76789;DHT22;65740;52.464;13.446;2023-04-28T05:39:14;19.00;38.90
76789;DHT22;65740;52.464;13.446;2023-04-28T05:41:40;19.00;38.90
76789;DHT22;65740;52.464;13.446;2023-04-28T05:44:05;18.90;38.80
76789;DHT22;65740;52.464;13.446;2023-04-28T05:46:31;19.00;39.50
76789;DHT22;65740;52.464;13.446;2023-04-28T05:48:57;19.00;39.00
76789;DHT22;65740;52.464;13.446;2023-04-28T05:51:22;19.00;39.00
76789;DHT22;65740;52.464;13.446;2023-04-28T05:53:48;19.00;39.00
76789;DHT22;65740;52.464;13.446;2023-04-28T05:56:14;19.00;39.00
76789;DHT22;65740;52.464;13.446;2023-04-28T05:58:41;19.00;39.10
76789;DHT22;65740;52.464;13.446;2023-04-28T06:01:08;19.00;39.10
76789;DHT22;65740;52.464;13.446;2023-04-28T06:03:34;19.00;39.10
76789;DHT22;65740;52.464;13.446;2023-04-28T06:06:00;19.00;39.10
76789;DHT22;65740;52.464;13.446;2023-04-28T06:08:25;19.00;39.10
76789;DHT22;65740;52.464;13.446;2023-04-28T06:10:51;19.00;39.20
76789;DHT22;65740;52.464;13.446;2023-04-28T06:13:16;18.90;39.00
76789;DHT22;65740;52.464;13.446;2023-04-28T06:15:42;18.90;39.10
76789;DHT22;65740;52.464;13.446;2023-04-28T06:18:07;18.90;39.20
76789;DHT22;65740;52.464;13.446;2023-04-28T06:20:34;18.90;39.20
76789;DHT22;65740;52.464;13.446;2023-04-28T06:23:00;18.90;39.30
76789;DHT22;65740;52.464;13.446;2023-04-28T06:25:28;18.90;39.30
76789;DHT22;65740;52.464;13.446;2023-04-28T06:27:54;18.90;39.10
76789;DHT22;65740;52.464;13.446;2023-04-28T06:30:21;18.80;39.30
76789;DHT22;65740;52.464;13.446;2023-04-28T06:32:47;18.90;39.30
76789;DHT22;65740;52.464;13.446;2023-04-28T06:35:14;18.90;39.40
76789;DHT22;65740;52.464;13.446;2023-04-28T06:37:40;18.90;39.40
76789;DHT22;65740;52.464;13.446;2023-04-28T06:40:06;18.90;39.30
76789;DHT22;65740;52.464;13.446;2023-04-28T06:42:32;18.90;39.20
76789;DHT22;65740;52.464;13.446;2023-04-28T06:44:58;18.90;39.30
76789;DHT22;65740;52.464;13.446;2023-04-28T06:47:24;19.00;39.30
76789;DHT22;65740;52.464;13.446;2023-04-28T06:49:49;19.00;39.20
76789;DHT22;65740;52.464;13.446;2023-04-28T06:52:16;19.10;39.20
76789;DHT22;65740;52.464;13.446;2023-04-28T06:54:41;19.10;39.10
76789;DHT22;65740;52.464;13.446;2023-04-28T06:57:07;19.10;39.10
76789;DHT22;65740;52.464;13.446;2023-04-28T06:59:33;19.20;39.10
76789;DHT22;65740;52.464;13.446;2023-04-28T07:01:59;19.20;39.10
76789;DHT22;65740;52.464;13.446;2023-04-28T07:04:25;19.20;39.00
76789;DHT22;65740;52.464;13.446;2023-04-28T07:06:51;19.20;39.00
76789;DHT22;65740;52.464;13.446;2023-04-28T07:09:17;19.20;39.00
76789;DHT22;65740;52.464;13.446;2023-04-28T07:11:43;19.20;39.00
76789;DHT22;65740;52.464;13.446;2023-04-28T07:14:09;19.20;39.00
76789;DHT22;65740;52.464;13.446;2023-04-28T07:16:35;19.20;39.10
76789;DHT22;65740;52.464;13.446;2023-04-28T07:19:01;19.20;39.20
76789;DHT22;65740;52.464;13.446;2023-04-28T07:21:26;19.20;39.30
76789;DHT22;65740;52.464;13.446;2023-04-28T07:23:53;19.20;39.40
76789;DHT22;65740;52.464;13.446;2023-04-28T07:26:22;19.20;39.40
76789;DHT22;65740;52.464;13.446;2023-04-28T07:28:47;19.20;39.50
76789;DHT22;65740;52.464;13.446;2023-04-28T07:31:13;19.20;39.50
76789;DHT22;65740;52.464;13.446;2023-04-28T07:33:38;19.20;39.60
76789;DHT22;65740;52.464;13.446;2023-04-28T07:36:05;19.20;39.50
76789;DHT22;65740;52.464;13.446;2023-04-28T07:38:35;19.30;39.70
76789;DHT22;65740;52.464;13.446;2023-04-28T07:41:04;19.30;39.70
76789;DHT22;65740;52.464;13.446;2023-04-28T07:43:30;19.30;39.80
76789;DHT22;65740;52.464;13.446;2023-04-28T07:45:55;19.20;39.70
76789;DHT22;65740;52.464;13.446;2023-04-28T07:48:21;19.20;39.80
76789;DHT22;65740;52.464;13.446;2023-04-28T07:50:47;19.20;39.90
76789;DHT22;65740;52.464;13.446;2023-04-28T07:53:12;19.20;39.90
76789;DHT22;65740;52.464;13.446;2023-04-28T07:55:38;19.20;40.00
76789;DHT22;65740;52.464;13.446;2023-04-28T07:58:06;19.20;40.00
76789;DHT22;65740;52.464;13.446;2023-04-28T08:00:32;19.20;40.10
76789;DHT22;65740;52.464;13.446;2023-04-28T08:02:58;19.20;40.20
76789;DHT22;65740;52.464;13.446;2023-04-28T08:05:23;19.20;40.20
76789;DHT22;65740;52.464;13.446;2023-04-28T08:07:49;19.20;40.20
76789;DHT22;65740;52.464;13.446;2023-04-28T08:10:15;19.20;40.20
76789;DHT22;65740;52.464;13.446;2023-04-28T08:12:40;19.20;40.20
76789;DHT22;65740;52.464;13.446;2023-04-28T08:15:08;19.30;40.30
76789;DHT22;65740;52.464;13.446;2023-04-28T08:17:34;19.30;40.30
76789;DHT22;65740;52.464;13.446;2023-04-28T08:19:59;19.30;40.30
76789;DHT22;65740;52.464;13.446;2023-04-28T08:22:25;19.30;40.00
76789;DHT22;65740;52.464;13.446;2023-04-28T08:24:51;19.30;40.00
76789;DHT22;65740;52.464;13.446;2023-04-28T08:27:17;19.30;40.20
76789;DHT22;65740;52.464;13.446;2023-04-28T08:29:43;19.30;40.30
76789;DHT22;65740;52.464;13.446;2023-04-28T08:32:08;19.40;40.40
76789;DHT22;65740;52.464;13.446;2023-04-28T08:34:34;19.50;40.40
76789;DHT22;65740;52.464;13.446;2023-04-28T08:37:00;19.50;40.40
76789;DHT22;65740;52.464;13.446;2023-04-28T08:39:26;19.50;40.40
76789;DHT22;65740;52.464;13.446;2023-04-28T08:41:52;19.50;40.60
76789;DHT22;65740;52.464;13.446;2023-04-28T08:44:18;19.50;40.50
76789;DHT22;65740;52.464;13.446;2023-04-28T08:46:45;19.50;40.80
76789;DHT22;65740;52.464;13.446;2023-04-28T08:49:16;19.60;40.90
76789;DHT22;65740;52.464;13.446;2023-04-28T08:51:48;19.60;40.80
76789;DHT22;65740;52.464;13.446;2023-04-28T08:54:15;19.60;40.70
76789;DHT22;65740;52.464;13.446;2023-04-28T08:56:45;19.70;40.90
76789;DHT22;65740;52.464;13.446;2023-04-28T08:59:11;19.70;41.00
76789;DHT22;65740;52.464;13.446;2023-04-28T09:01:40;19.70;40.80
76789;DHT22;65740;52.464;13.446;2023-04-28T09:04:06;19.80;41.60
76789;DHT22;65740;52.464;13.446;2023-04-28T09:06:36;19.80;41.00
76789;DHT22;65740;52.464;13.446;2023-04-28T09:14:16;19.90;41.20
76789;DHT22;65740;52.464;13.446;2023-04-28T09:16:42;19.90;41.10
76789;DHT22;65740;52.464;13.446;2023-04-28T09:19:08;19.90;41.20
76789;DHT22;65740;52.464;13.446;2023-04-28T09:21:49;19.90;41.20
76789;DHT22;65740;52.464;13.446;2023-04-28T09:24:47;19.90;41.20
76789;DHT22;65740;52.464;13.446;2023-04-28T09:27:13;19.90;41.30
76789;DHT22;65740;52.464;13.446;2023-04-28T09:29:51;19.90;41.40
76789;DHT22;65740;52.464;13.446;2023-04-28T09:32:20;19.90;41.40
76789;DHT22;65740;52.464;13.446;2023-04-28T09:34:53;20.00;41.50
76789;DHT22;65740;52.464;13.446;2023-04-28T09:37:25;20.00;41.50
76789;DHT22;65740;52.464;13.446;2023-04-28T09:40:07;20.00;41.50
76789;DHT22;65740;52.464;13.446;2023-04-28T09:42:43;20.00;41.70
76789;DHT22;65740;52.464;13.446;2023-04-28T09:45:12;20.00;41.60
76789;DHT22;65740;52.464;13.446;2023-04-28T09:47:43;20.10;41.80
76789;DHT22;65740;52.464;13.446;2023-04-28T09:50:12;20.00;41.70
76789;DHT22;65740;52.464;13.446;2023-04-28T09:52:43;20.10;42.50
76789;DHT22;65740;52.464;13.446;2023-04-28T09:55:11;20.10;42.40
76789;DHT22;65740;52.464;13.446;2023-04-28T09:57:38;20.00;42.60
76789;DHT22;65740;52.464;13.446;2023-04-28T10:00:06;20.00;42.50
76789;DHT22;65740;52.464;13.446;2023-04-28T10:02:34;20.10;42.50
76789;DHT22;65740;52.464;13.446;2023-04-28T10:05:00;20.10;42.90
76789;DHT22;65740;52.464;13.446;2023-04-28T10:07:26;20.20;42.50
76789;DHT22;65740;52.464;13.446;2023-04-28T10:09:52;20.20;43.10
76789;DHT22;65740;52.464;13.446;2023-04-28T10:12:20;20.30;42.50
76789;DHT22;65740;52.464;13.446;2023-04-28T10:14:47;20.30;42.80
76789;DHT22;65740;52.464;13.446;2023-04-28T10:17:19;20.30;43.10
76789;DHT22;65740;52.464;13.446;2023-04-28T10:19:48;20.40;43.40
76789;DHT22;65740;52.464;13.446;2023-04-28T10:27:38;20.50;43.10
76789;DHT22;65740;52.464;13.446;2023-04-28T10:32:37;20.50;43.00
76789;DHT22;65740;52.464;13.446;2023-04-28T10:38:06;20.60;42.90
76789;DHT22;65740;52.464;13.446;2023-04-28T10:40:37;20.70;43.00
76789;DHT22;65740;52.464;13.446;2023-04-28T10:43:04;20.70;43.90
76789;DHT22;65740;52.464;13.446;2023-04-28T10:48:59;20.80;42.60
76789;DHT22;65740;52.464;13.446;2023-04-28T10:58:36;20.90;43.30
76789;DHT22;65740;52.464;13.446;2023-04-28T11:06:40;21.00;43.10
76789;DHT22;65740;52.464;13.446;2023-04-28T11:17:01;21.10;43.30
76789;DHT22;65740;52.464;13.446;2023-04-28T11:19:29;21.10;43.30
76789;DHT22;65740;52.464;13.446;2023-04-28T11:21:57;21.20;43.70
76789;DHT22;65740;52.464;13.446;2023-04-28T11:24:24;21.20;43.50
76789;DHT22;65740;52.464;13.446;2023-04-28T11:26:50;21.10;43.40
76789;DHT22;65740;52.464;13.446;2023-04-28T11:29:17;21.10;43.50
76789;DHT22;65740;52.464;13.446;2023-04-28T11:31:49;21.10;43.70
76789;DHT22;65740;52.464;13.446;2023-04-28T11:34:19;21.10;43.70
76789;DHT22;65740;52.464;13.446;2023-04-28T11:36:45;21.10;43.80
76789;DHT22;65740;52.464;13.446;2023-04-28T11:39:12;21.10;44.00
76789;DHT22;65740;52.464;13.446;2023-04-28T11:41:40;21.10;44.00
76789;DHT22;65740;52.464;13.446;2023-04-28T11:44:12;21.10;44.30
76789;DHT22;65740;52.464;13.446;2023-04-28T11:46:52;21.20;44.50
76789;DHT22;65740;52.464;13.446;2023-04-28T11:49:22;21.20;44.50
76789;DHT22;65740;52.464;13.446;2023-04-28T11:51:53;21.20;44.60
76789;DHT22;65740;52.464;13.446;2023-04-28T11:54:28;21.20;44.60
76789;DHT22;65740;52.464;13.446;2023-04-28T11:56:56;21.10;44.60
76789;DHT22;65740;52.464;13.446;2023-04-28T11:59:27;21.10;44.50
76789;DHT22;65740;52.464;13.446;2023-04-28T12:01:55;21.10;44.60
76789;DHT22;65740;52.464;13.446;2023-04-28T12:04:42;21.10;45.00
76789;DHT22;65740;52.464;13.446;2023-04-28T12:07:16;21.10;45.20
76789;DHT22;65740;52.464;13.446;2023-04-28T12:09:45;21.10;45.30
76789;DHT22;65740;52.464;13.446;2023-04-28T12:12:13;21.20;45.50
76789;DHT22;65740;52.464;13.446;2023-04-28T12:15:00;21.20;45.40
76789;DHT22;65740;52.464;13.446;2023-04-28T12:17:30;21.20;45.60
76789;DHT22;65740;52.464;13.446;2023-04-28T12:19:58;21.30;45.70
76789;DHT22;65740;52.464;13.446;2023-04-28T12:22:24;21.30;45.80
76789;DHT22;65740;52.464;13.446;2023-04-28T12:25:09;21.30;45.80
76789;DHT22;65740;52.464;13.446;2023-04-28T12:27:37;21.40;46.00
76789;DHT22;65740;52.464;13.446;2023-04-28T12:32:43;21.40;46.00
76789;DHT22;65740;52.464;13.446;2023-04-28T12:35:09;21.50;46.20
76789;DHT22;65740;52.464;13.446;2023-04-28T12:37:36;21.50;46.10
76789;DHT22;65740;52.464;13.446;2023-04-28T12:40:07;21.50;46.60
76789;DHT22;65740;52.464;13.446;2023-04-28T12:42:33;21.60;46.30
76789;DHT22;65740;52.464;13.446;2023-04-28T12:44:59;21.60;46.40
76789;DHT22;65740;52.464;13.446;2023-04-28T12:47:25;21.60;46.50
76789;DHT22;65740;52.464;13.446;2023-04-28T12:49:50;21.70;46.40
76789;DHT22;65740;52.464;13.446;2023-04-28T12:52:21;21.70;46.30
76789;DHT22;65740;52.464;13.446;2023-04-28T12:54:47;21.80;46.40
76789;DHT22;65740;52.464;13.446;2023-04-28T12:57:14;21.80;46.60
76789;DHT22;65740;52.464;13.446;2023-04-28T12:59:39;21.80;46.90
76789;DHT22;65740;52.464;13.446;2023-04-28T13:02:06;21.80;47.90
76789;DHT22;65740;52.464;13.446;2023-04-28T13:04:32;21.80;47.10
76789;DHT22;65740;52.464;13.446;2023-04-28T13:06:58;21.90;47.10
76789;DHT22;65740;52.464;13.446;2023-04-28T13:09:24;21.90;47.20
76789;DHT22;65740;52.464;13.446;2023-04-28T13:11:50;21.90;47.20
76789;DHT22;65740;52.464;13.446;2023-04-28T13:14:21;22.00;47.20
76789;DHT22;65740;52.464;13.446;2023-04-28T13:16:47;22.00;47.20
76789;DHT22;65740;52.464;13.446;2023-04-28T13:19:13;22.10;47.40
76789;DHT22;65740;52.464;13.446;2023-04-28T13:21:42;22.10;47.50
76789;DHT22;65740;52.464;13.446;2023-04-28T13:24:09;22.10;47.40
76789;DHT22;65740;52.464;13.446;2023-04-28T13:26:35;22.10;47.40
76789;DHT22;65740;52.464;13.446;2023-04-28T13:29:02;22.10;47.40
76789;DHT22;65740;52.464;13.446;2023-04-28T13:31:29;22.20;47.20
76789;DHT22;65740;52.464;13.446;2023-04-28T13:33:55;22.20;46.90
76789;DHT22;65740;52.464;13.446;2023-04-28T13:36:21;22.20;47.30
76789;DHT22;65740;52.464;13.446;2023-04-28T13:38:48;22.30;47.30
76789;DHT22;65740;52.464;13.446;2023-04-28T13:41:17;22.20;47.20
76789;DHT22;65740;52.464;13.446;2023-04-28T13:43:43;22.20;47.60
76789;DHT22;65740;52.464;13.446;2023-04-28T13:46:09;22.20;47.90
76789;DHT22;65740;52.464;13.446;2023-04-28T13:48:36;22.20;48.40
76789;DHT22;65740;52.464;13.446;2023-04-28T13:51:02;22.20;48.20
76789;DHT22;65740;52.464;13.446;2023-04-28T13:53:29;22.10;48.50
76789;DHT22;65740;52.464;13.446;2023-04-28T13:55:55;22.10;48.50
76789;DHT22;65740;52.464;13.446;2023-04-28T13:58:27;22.10;48.50
76789;DHT22;65740;52.464;13.446;2023-04-28T14:00:54;22.20;48.60
76789;DHT22;65740;52.464;13.446;2023-04-28T14:03:21;22.20;48.60
76789;DHT22;65740;52.464;13.446;2023-04-28T14:05:56;22.10;48.50
76789;DHT22;65740;52.464;13.446;2023-04-28T14:08:23;22.10;48.50
76789;DHT22;65740;52.464;13.446;2023-04-28T14:10:49;22.10;48.50
76789;DHT22;65740;52.464;13.446;2023-04-28T14:13:16;22.10;48.50
76789;DHT22;65740;52.464;13.446;2023-04-28T14:15:41;22.00;48.40
76789;DHT22;65740;52.464;13.446;2023-04-28T14:18:07;22.10;49.10
76789;DHT22;65740;52.464;13.446;2023-04-28T14:20:34;22.00;48.40
76789;DHT22;65740;52.464;13.446;2023-04-28T14:23:00;22.00;48.90
76789;DHT22;65740;52.464;13.446;2023-04-28T14:25:26;22.10;49.30
76789;DHT22;65740;52.464;13.446;2023-04-28T14:27:52;22.10;49.10
76789;DHT22;65740;52.464;13.446;2023-04-28T14:30:18;22.10;48.70
76789;DHT22;65740;52.464;13.446;2023-04-28T14:32:44;22.10;48.90
76789;DHT22;65740;52.464;13.446;2023-04-28T14:35:11;22.10;48.80
76789;DHT22;65740;52.464;13.446;2023-04-28T14:37:38;22.10;48.70
76789;DHT22;65740;52.464;13.446;2023-04-28T14:40:04;22.10;48.90
76789;DHT22;65740;52.464;13.446;2023-04-28T14:42:32;22.10;49.00
76789;DHT22;65740;52.464;13.446;2023-04-28T14:45:01;22.10;48.80
76789;DHT22;65740;52.464;13.446;2023-04-28T14:47:26;22.20;48.90
76789;DHT22;65740;52.464;13.446;2023-04-28T14:49:52;22.20;49.10
76789;DHT22;65740;52.464;13.446;2023-04-28T14:52:22;22.20;48.60
76789;DHT22;65740;52.464;13.446;2023-04-28T14:54:50;22.20;49.20
76789;DHT22;65740;52.464;13.446;2023-04-28T14:57:16;22.20;49.30
76789;DHT22;65740;52.464;13.446;2023-04-28T14:59:42;22.20;49.10
76789;DHT22;65740;52.464;13.446;2023-04-28T15:02:08;22.30;49.20
76789;DHT22;65740;52.464;13.446;2023-04-28T15:04:34;22.30;49.40
76789;DHT22;65740;52.464;13.446;2023-04-28T15:06:59;22.30;50.20
76789;DHT22;65740;52.464;13.446;2023-04-28T15:09:26;22.30;48.90
76789;DHT22;65740;52.464;13.446;2023-04-28T15:11:52;22.40;49.10
76789;DHT22;65740;52.464;13.446;2023-04-28T15:14:17;22.30;49.20
76789;DHT22;65740;52.464;13.446;2023-04-28T15:16:44;22.30;49.60
76789;DHT22;65740;52.464;13.446;2023-04-28T15:19:10;22.30;49.40
76789;DHT22;65740;52.464;13.446;2023-04-28T15:21:36;22.40;50.10
76789;DHT22;65740;52.464;13.446;2023-04-28T15:24:02;22.40;49.10
76789;DHT22;65740;52.464;13.446;2023-04-28T15:26:27;22.40;48.70
76789;DHT22;65740;52.464;13.446;2023-04-28T15:28:53;22.40;48.70
76789;DHT22;65740;52.464;13.446;2023-04-28T15:31:19;22.40;48.70
76789;DHT22;65740;52.464;13.446;2023-04-28T15:33:48;22.30;48.70
76789;DHT22;65740;52.464;13.446;2023-04-28T15:36:14;22.30;48.70
76789;DHT22;65740;52.464;13.446;2023-04-28T15:38:39;22.20;48.60
76789;DHT22;65740;52.464;13.446;2023-04-28T15:41:07;22.20;48.60
76789;DHT22;65740;52.464;13.446;2023-04-28T15:43:33;22.20;49.80
76789;DHT22;65740;52.464;13.446;2023-04-28T15:45:59;22.20;49.20
76789;DHT22;65740;52.464;13.446;2023-04-28T15:48:25;22.20;49.20
76789;DHT22;65740;52.464;13.446;2023-04-28T15:50:51;22.20;49.30
76789;DHT22;65740;52.464;13.446;2023-04-28T15:53:17;22.20;49.40
76789;DHT22;65740;52.464;13.446;2023-04-28T15:55:43;22.20;49.70